Terminal Aerodrome Forecast
Issued by NWS Shreveport, LA

Home | Current Version | Previous Version | Text Only | Print | Product List | Glossary On
Versions: 1 2 3 4 5 6 7 8 9 10 11 12 13 14 15
000
FTUS44 KSHV 061147
TAFTYR
TAF
KTYR 061147Z 0612/0712 15007KT P6SM VCSH SCT015 BKN100 BKN250
      TEMPO 0612/0616 5SM -SHRA BR BKN015
     FM061600 17012G18KT P6SM BKN025
     FM061800 17012G18KT P6SM BKN035
     FM070000 15009KT P6SM SCT060 BKN250
      TEMPO 0710/0712 BKN015=

USA.gov is the U.S. government's official web portal to all federal, state and local government web resources and services.